sensor_id;sensor_type;location;lat;lon;timestamp;pressure;altitude;pressure_sealevel;temperature;humidity
36092;BME280;22147;52.388;13.390;2023-03-31T00:01:39;99944.72;;;8.34;100.00
36092;BME280;22147;52.388;13.390;2023-03-31T00:04:11;99940.84;;;8.26;100.00
36092;BME280;22147;52.388;13.390;2023-03-31T00:06:42;99945.22;;;8.27;100.00
36092;BME280;22147;52.388;13.390;2023-03-31T00:09:15;99943.75;;;8.21;100.00
36092;BME280;22147;52.388;13.390;2023-03-31T00:11:48;99949.78;;;8.23;100.00
36092;BME280;22147;52.388;13.390;2023-03-31T00:14:19;99946.88;;;8.20;100.00
36092;BME280;22147;52.388;13.390;2023-03-31T00:16:50;99943.00;;;8.12;100.00
36092;BME280;22147;52.388;13.390;2023-03-31T00:19:20;99946.53;;;8.21;100.00
36092;BME280;22147;52.388;13.390;2023-03-31T00:21:50;99936.09;;;8.27;100.00
36092;BME280;22147;52.388;13.390;2023-03-31T00:24:20;99938.88;;;8.27;100.00
36092;BME280;22147;52.388;13.390;2023-03-31T00:26:50;99935.31;;;8.26;100.00
36092;BME280;22147;52.388;13.390;2023-03-31T00:29:19;99927.16;;;8.30;100.00
36092;BME280;22147;52.388;13.390;2023-03-31T00:31:49;99925.81;;;8.45;100.00
36092;BME280;22147;52.388;13.390;2023-03-31T00:34:21;99926.84;;;8.61;100.00
36092;BME280;22147;52.388;13.390;2023-03-31T00:36:50;99922.28;;;8.65;100.00
36092;BME280;22147;52.388;13.390;2023-03-31T00:39:25;99921.25;;;8.70;100.00
36092;BME280;22147;52.388;13.390;2023-03-31T00:42:03;99931.31;;;8.53;100.00
36092;BME280;22147;52.388;13.390;2023-03-31T00:45:16;99924.34;;;8.39;100.00
36092;BME280;22147;52.388;13.390;2023-03-31T00:48:06;99917.66;;;8.40;100.00
36092;BME280;22147;52.388;13.390;2023-03-31T00:50:55;99914.28;;;8.34;100.00
36092;BME280;22147;52.388;13.390;2023-03-31T00:53:31;99917.41;;;8.24;100.00
36092;BME280;22147;52.388;13.390;2023-03-31T00:56:12;99913.53;;;8.16;100.00
36092;BME280;22147;52.388;13.390;2023-03-31T00:58:44;99903.63;;;8.06;100.00
36092;BME280;22147;52.388;13.390;2023-03-31T01:01:21;99908.03;;;8.07;100.00
36092;BME280;22147;52.388;13.390;2023-03-31T01:03:56;99902.34;;;8.04;100.00
36092;BME280;22147;52.388;13.390;2023-03-31T01:06:28;99901.75;;;7.89;100.00
36092;BME280;22147;52.388;13.390;2023-03-31T01:09:02;99889.09;;;7.80;100.00
36092;BME280;22147;52.388;13.390;2023-03-31T01:11:36;99886.16;;;7.85;100.00
36092;BME280;22147;52.388;13.390;2023-03-31T01:14:06;99887.78;;;7.86;100.00
36092;BME280;22147;52.388;13.390;2023-03-31T01:16:36;99880.28;;;7.86;100.00
36092;BME280;22147;52.388;13.390;2023-03-31T01:19:30;99882.59;;;7.84;100.00
36092;BME280;22147;52.388;13.390;2023-03-31T01:29:58;99867.75;;;7.89;100.00
36092;BME280;22147;52.388;13.390;2023-03-31T01:46:30;99845.63;;;8.27;100.00
36092;BME280;22147;52.388;13.390;2023-03-31T01:52:23;99854.53;;;8.42;100.00
36092;BME280;22147;52.388;13.390;2023-03-31T01:58:22;99840.13;;;8.19;100.00
36092;BME280;22147;52.388;13.390;2023-03-31T02:01:36;99838.91;;;8.37;100.00
36092;BME280;22147;52.388;13.390;2023-03-31T02:04:23;99832.88;;;8.44;100.00
36092;BME280;22147;52.388;13.390;2023-03-31T02:07:12;99826.22;;;8.36;100.00
36092;BME280;22147;52.388;13.390;2023-03-31T02:09:57;99825.75;;;8.34;100.00
36092;BME280;22147;52.388;13.390;2023-03-31T02:12:37;99827.16;;;8.40;100.00
36092;BME280;22147;52.388;13.390;2023-03-31T02:15:15;99822.31;;;8.37;100.00
36092;BME280;22147;52.388;13.390;2023-03-31T02:17:57;99824.91;;;8.33;100.00
36092;BME280;22147;52.388;13.390;2023-03-31T02:20:32;99822.16;;;8.33;100.00
36092;BME280;22147;52.388;13.390;2023-03-31T02:23:04;99814.69;;;8.34;100.00
36092;BME280;22147;52.388;13.390;2023-03-31T02:25:49;99812.44;;;8.27;100.00
36092;BME280;22147;52.388;13.390;2023-03-31T02:28:25;99812.72;;;8.34;100.00
36092;BME280;22147;52.388;13.390;2023-03-31T02:31:16;99813.38;;;8.31;100.00
36092;BME280;22147;52.388;13.390;2023-03-31T02:34:02;99807.03;;;8.31;100.00
36092;BME280;22147;52.388;13.390;2023-03-31T02:36:34;99805.44;;;8.30;100.00
36092;BME280;22147;52.388;13.390;2023-03-31T02:39:12;99803.06;;;8.20;100.00
36092;BME280;22147;52.388;13.390;2023-03-31T02:41:45;99795.75;;;8.15;100.00
36092;BME280;22147;52.388;13.390;2023-03-31T02:44:16;99798.69;;;8.10;100.00
36092;BME280;22147;52.388;13.390;2023-03-31T02:46:47;99796.47;;;8.03;100.00
36092;BME280;22147;52.388;13.390;2023-03-31T02:49:20;99796.13;;;8.05;100.00
36092;BME280;22147;52.388;13.390;2023-03-31T03:13:50;99774.81;;;8.05;100.00
36092;BME280;22147;52.388;13.390;2023-03-31T03:16:42;99768.34;;;8.01;100.00
36092;BME280;22147;52.388;13.390;2023-03-31T03:19:21;99770.91;;;8.06;100.00
36092;BME280;22147;52.388;13.390;2023-03-31T03:21:53;99765.03;;;8.08;100.00
36092;BME280;22147;52.388;13.390;2023-03-31T03:24:23;99756.75;;;8.08;100.00
36092;BME280;22147;52.388;13.390;2023-03-31T03:26:58;99753.81;;;8.13;100.00
36092;BME280;22147;52.388;13.390;2023-03-31T03:29:29;99760.19;;;8.05;100.00
36092;BME280;22147;52.388;13.390;2023-03-31T03:31:59;99749.31;;;8.00;100.00
36092;BME280;22147;52.388;13.390;2023-03-31T03:34:29;99748.50;;;7.99;100.00
36092;BME280;22147;52.388;13.390;2023-03-31T03:37:00;99746.06;;;7.98;100.00
36092;BME280;22147;52.388;13.390;2023-03-31T03:39:30;99742.03;;;7.95;100.00
36092;BME280;22147;52.388;13.390;2023-03-31T03:42:02;99736.50;;;7.95;100.00
36092;BME280;22147;52.388;13.390;2023-03-31T03:44:33;99744.63;;;8.00;100.00
36092;BME280;22147;52.388;13.390;2023-03-31T03:47:03;99734.81;;;8.03;100.00
36092;BME280;22147;52.388;13.390;2023-03-31T03:49:33;99737.44;;;7.99;100.00
36092;BME280;22147;52.388;13.390;2023-03-31T03:52:04;99732.59;;;7.96;100.00
36092;BME280;22147;52.388;13.390;2023-03-31T03:54:35;99722.81;;;7.99;100.00
36092;BME280;22147;52.388;13.390;2023-03-31T03:57:05;99732.25;;;7.98;100.00
36092;BME280;22147;52.388;13.390;2023-03-31T03:59:36;99721.88;;;7.94;100.00
36092;BME280;22147;52.388;13.390;2023-03-31T04:02:06;99728.53;;;7.93;100.00
36092;BME280;22147;52.388;13.390;2023-03-31T04:04:36;99724.47;;;7.91;100.00
36092;BME280;22147;52.388;13.390;2023-03-31T04:07:06;99710.97;;;7.89;100.00
36092;BME280;22147;52.388;13.390;2023-03-31T04:09:35;99717.00;;;7.91;100.00
36092;BME280;22147;52.388;13.390;2023-03-31T04:12:04;99720.22;;;7.93;100.00
36092;BME280;22147;52.388;13.390;2023-03-31T04:14:32;99719.56;;;7.97;100.00
36092;BME280;22147;52.388;13.390;2023-03-31T04:17:00;99719.56;;;7.97;100.00
36092;BME280;22147;52.388;13.390;2023-03-31T04:19:29;99709.56;;;8.13;100.00
36092;BME280;22147;52.388;13.390;2023-03-31T04:21:57;99710.41;;;8.05;100.00
36092;BME280;22147;52.388;13.390;2023-03-31T04:24:29;99712.78;;;8.15;100.00
36092;BME280;22147;52.388;13.390;2023-03-31T04:27:02;99705.34;;;8.07;100.00
36092;BME280;22147;52.388;13.390;2023-03-31T04:29:33;99703.78;;;7.97;100.00
36092;BME280;22147;52.388;13.390;2023-03-31T04:32:06;99693.31;;;7.82;100.00
36092;BME280;22147;52.388;13.390;2023-03-31T04:34:36;99699.03;;;7.77;100.00
36092;BME280;22147;52.388;13.390;2023-03-31T04:37:06;99693.94;;;7.87;100.00
36092;BME280;22147;52.388;13.390;2023-03-31T04:39:39;99683.13;;;7.73;100.00
36092;BME280;22147;52.388;13.390;2023-03-31T04:42:10;99678.94;;;7.67;100.00
36092;BME280;22147;52.388;13.390;2023-03-31T04:44:40;99679.41;;;7.69;100.00
36092;BME280;22147;52.388;13.390;2023-03-31T04:47:09;99671.66;;;7.63;100.00
36092;BME280;22147;52.388;13.390;2023-03-31T04:49:37;99669.59;;;7.51;100.00
36092;BME280;22147;52.388;13.390;2023-03-31T04:52:06;99672.41;;;7.42;100.00
36092;BME280;22147;52.388;13.390;2023-03-31T04:54:34;99675.63;;;7.44;100.00
36092;BME280;22147;52.388;13.390;2023-03-31T04:57:03;99662.59;;;7.53;100.00
36092;BME280;22147;52.388;13.390;2023-03-31T04:59:31;99658.22;;;7.52;100.00
36092;BME280;22147;52.388;13.390;2023-03-31T05:01:59;99656.25;;;7.53;100.00
36092;BME280;22147;52.388;13.390;2023-03-31T05:04:28;99653.00;;;7.51;100.00
36092;BME280;22147;52.388;13.390;2023-03-31T05:06:56;99652.34;;;7.54;100.00
36092;BME280;22147;52.388;13.390;2023-03-31T05:09:25;99643.88;;;7.59;100.00
36092;BME280;22147;52.388;13.390;2023-03-31T05:11:53;99645.13;;;7.62;100.00
36092;BME280;22147;52.388;13.390;2023-03-31T05:14:22;99648.91;;;7.57;100.00
36092;BME280;22147;52.388;13.390;2023-03-31T05:16:50;99637.06;;;7.57;100.00
36092;BME280;22147;52.388;13.390;2023-03-31T05:19:18;99647.72;;;7.67;100.00
36092;BME280;22147;52.388;13.390;2023-03-31T05:21:47;99647.91;;;7.62;100.00
36092;BME280;22147;52.388;13.390;2023-03-31T05:24:16;99638.63;;;7.66;100.00
36092;BME280;22147;52.388;13.390;2023-03-31T05:26:44;99631.72;;;7.81;100.00
36092;BME280;22147;52.388;13.390;2023-03-31T05:29:23;99622.88;;;8.09;100.00
36092;BME280;22147;52.388;13.390;2023-03-31T05:31:53;99618.88;;;7.98;100.00
36092;BME280;22147;52.388;13.390;2023-03-31T05:34:23;99616.66;;;7.91;100.00
36092;BME280;22147;52.388;13.390;2023-03-31T05:36:53;99611.94;;;7.91;100.00
36092;BME280;22147;52.388;13.390;2023-03-31T05:39:24;99616.72;;;8.03;100.00
36092;BME280;22147;52.388;13.390;2023-03-31T05:41:54;99613.41;;;7.89;100.00
36092;BME280;22147;52.388;13.390;2023-03-31T05:44:25;99614.03;;;7.94;100.00
36092;BME280;22147;52.388;13.390;2023-03-31T05:46:56;99616.94;;;7.98;100.00
36092;BME280;22147;52.388;13.390;2023-03-31T05:49:26;99613.00;;;8.20;100.00
36092;BME280;22147;52.388;13.390;2023-03-31T05:51:56;99601.34;;;8.14;100.00
36092;BME280;22147;52.388;13.390;2023-03-31T05:54:27;99591.63;;;8.08;100.00
36092;BME280;22147;52.388;13.390;2023-03-31T05:56:57;99599.44;;;8.27;100.00
36092;BME280;22147;52.388;13.390;2023-03-31T05:59:27;99602.19;;;8.27;100.00
36092;BME280;22147;52.388;13.390;2023-03-31T06:01:57;99596.63;;;8.15;100.00
36092;BME280;22147;52.388;13.390;2023-03-31T06:04:28;99600.47;;;8.02;100.00
36092;BME280;22147;52.388;13.390;2023-03-31T06:06:58;99588.19;;;8.11;100.00
36092;BME280;22147;52.388;13.390;2023-03-31T06:09:29;99583.78;;;8.10;100.00
36092;BME280;22147;52.388;13.390;2023-03-31T06:11:59;99580.53;;;7.96;100.00
36092;BME280;22147;52.388;13.390;2023-03-31T06:14:29;99582.53;;;7.87;100.00
36092;BME280;22147;52.388;13.390;2023-03-31T06:16:59;99568.25;;;7.85;100.00
36092;BME280;22147;52.388;13.390;2023-03-31T06:19:30;99575.34;;;7.94;100.00
36092;BME280;22147;52.388;13.390;2023-03-31T06:22:00;99564.81;;;8.21;100.00
36092;BME280;22147;52.388;13.390;2023-03-31T06:24:30;99562.72;;;8.39;100.00
36092;BME280;22147;52.388;13.390;2023-03-31T06:26:59;99557.50;;;8.38;100.00
36092;BME280;22147;52.388;13.390;2023-03-31T06:29:27;99553.56;;;8.60;100.00
36092;BME280;22147;52.388;13.390;2023-03-31T06:31:56;99557.00;;;8.56;100.00
36092;BME280;22147;52.388;13.390;2023-03-31T06:34:24;99545.63;;;8.70;100.00
36092;BME280;22147;52.388;13.390;2023-03-31T06:36:53;99544.94;;;8.98;100.00
36092;BME280;22147;52.388;13.390;2023-03-31T06:39:21;99546.34;;;9.16;100.00
36092;BME280;22147;52.388;13.390;2023-03-31T06:41:52;99541.22;;;9.43;100.00
36092;BME280;22147;52.388;13.390;2023-03-31T06:44:21;99546.88;;;9.87;100.00
36092;BME280;22147;52.388;13.390;2023-03-31T06:46:53;99544.78;;;10.25;100.00
36092;BME280;22147;52.388;13.390;2023-03-31T06:49:23;99543.84;;;10.33;100.00
36092;BME280;22147;52.388;13.390;2023-03-31T06:51:54;99540.03;;;10.69;100.00
36092;BME280;22147;52.388;13.390;2023-03-31T06:54:24;99541.72;;;10.74;100.00
36092;BME280;22147;52.388;13.390;2023-03-31T06:56:54;99542.41;;;11.03;100.00
36092;BME280;22147;52.388;13.390;2023-03-31T06:59:25;99539.47;;;11.11;100.00
36092;BME280;22147;52.388;13.390;2023-03-31T07:01:55;99532.19;;;11.23;100.00
36092;BME280;22147;52.388;13.390;2023-03-31T07:04:25;99529.06;;;11.24;100.00
36092;BME280;22147;52.388;13.390;2023-03-31T07:06:58;99533.28;;;11.53;100.00
36092;BME280;22147;52.388;13.390;2023-03-31T07:09:28;99532.34;;;11.65;100.00
36092;BME280;22147;52.388;13.390;2023-03-31T07:11:58;99540.59;;;11.61;100.00
36092;BME280;22147;52.388;13.390;2023-03-31T07:14:28;99519.00;;;11.90;100.00
36092;BME280;22147;52.388;13.390;2023-03-31T07:16:59;99515.38;;;12.29;100.00
36092;BME280;22147;52.388;13.390;2023-03-31T07:19:29;99508.31;;;11.92;100.00
36092;BME280;22147;52.388;13.390;2023-03-31T07:21:59;99516.78;;;12.19;100.00
36092;BME280;22147;52.388;13.390;2023-03-31T07:24:29;99516.31;;;12.36;100.00
36092;BME280;22147;52.388;13.390;2023-03-31T07:26:59;99509.91;;;12.55;100.00
36092;BME280;22147;52.388;13.390;2023-03-31T07:29:30;99511.06;;;12.77;100.00
36092;BME280;22147;52.388;13.390;2023-03-31T07:32:00;99513.50;;;12.56;100.00
36092;BME280;22147;52.388;13.390;2023-03-31T07:34:30;99511.19;;;12.38;100.00
36092;BME280;22147;52.388;13.390;2023-03-31T07:37:00;99514.47;;;12.90;100.00
36092;BME280;22147;52.388;13.390;2023-03-31T07:39:31;99503.56;;;13.04;100.00
36092;BME280;22147;52.388;13.390;2023-03-31T07:42:01;99497.19;;;13.31;100.00
36092;BME280;22147;52.388;13.390;2023-03-31T07:44:35;99490.63;;;13.46;100.00
36092;BME280;22147;52.388;13.390;2023-03-31T07:47:06;99485.81;;;13.73;100.00
36092;BME280;22147;52.388;13.390;2023-03-31T07:49:36;99488.09;;;13.64;100.00
36092;BME280;22147;52.388;13.390;2023-03-31T07:52:06;99491.34;;;13.70;100.00
36092;BME280;22147;52.388;13.390;2023-03-31T07:54:37;99485.47;;;13.48;100.00
36092;BME280;22147;52.388;13.390;2023-03-31T07:57:05;99476.31;;;13.48;100.00
36092;BME280;22147;52.388;13.390;2023-03-31T07:59:37;99473.53;;;13.78;100.00
36092;BME280;22147;52.388;13.390;2023-03-31T08:02:05;99475.09;;;13.45;100.00
36092;BME280;22147;52.388;13.390;2023-03-31T08:04:33;99465.94;;;13.48;100.00
36092;BME280;22147;52.388;13.390;2023-03-31T08:07:02;99466.38;;;13.50;100.00
36092;BME280;22147;52.388;13.390;2023-03-31T08:09:30;99458.66;;;12.87;100.00
36092;BME280;22147;52.388;13.390;2023-03-31T08:11:59;99460.88;;;13.27;100.00
36092;BME280;22147;52.388;13.390;2023-03-31T08:14:27;99458.88;;;13.54;100.00
36092;BME280;22147;52.388;13.390;2023-03-31T08:17:10;99446.34;;;14.09;100.00
36092;BME280;22147;52.388;13.390;2023-03-31T08:19:40;99455.03;;;14.41;100.00
36092;BME280;22147;52.388;13.390;2023-03-31T08:22:10;99453.28;;;13.88;100.00
36092;BME280;22147;52.388;13.390;2023-03-31T08:24:40;99459.78;;;14.33;100.00
36092;BME280;22147;52.388;13.390;2023-03-31T08:27:08;99449.56;;;15.00;100.00
36092;BME280;22147;52.388;13.390;2023-03-31T08:29:40;99452.22;;;15.41;100.00
36092;BME280;22147;52.388;13.390;2023-03-31T08:32:08;99430.53;;;15.20;100.00
36092;BME280;22147;52.388;13.390;2023-03-31T08:34:36;99439.13;;;14.45;100.00
36092;BME280;22147;52.388;13.390;2023-03-31T08:37:05;99433.50;;;14.41;100.00
36092;BME280;22147;52.388;13.390;2023-03-31T08:39:37;99424.78;;;14.05;100.00
36092;BME280;22147;52.388;13.390;2023-03-31T08:42:44;99417.63;;;14.08;100.00
36092;BME280;22147;52.388;13.390;2023-03-31T08:45:25;99415.84;;;13.89;100.00
36092;BME280;22147;52.388;13.390;2023-03-31T08:48:24;99414.53;;;13.79;100.00
36092;BME280;22147;52.388;13.390;2023-03-31T08:51:32;99410.44;;;13.70;100.00
36092;BME280;22147;52.388;13.390;2023-03-31T08:54:20;99416.91;;;13.77;100.00
36092;BME280;22147;52.388;13.390;2023-03-31T08:57:36;99412.47;;;13.73;100.00
36092;BME280;22147;52.388;13.390;2023-03-31T09:00:17;99414.50;;;13.76;100.00
36092;BME280;22147;52.388;13.390;2023-03-31T09:03:32;99403.81;;;14.22;100.00
36092;BME280;22147;52.388;13.390;2023-03-31T09:06:11;99395.81;;;14.65;100.00
36092;BME280;22147;52.388;13.390;2023-03-31T09:08:46;99392.72;;;15.55;100.00
36092;BME280;22147;52.388;13.390;2023-03-31T09:17:23;99384.47;;;15.94;93.22
36092;BME280;22147;52.388;13.390;2023-03-31T09:22:51;99380.84;;;15.79;96.08
36092;BME280;22147;52.388;13.390;2023-03-31T09:25:37;99372.84;;;15.81;95.43
36092;BME280;22147;52.388;13.390;2023-03-31T09:28:30;99371.66;;;15.86;98.13
36092;BME280;22147;52.388;13.390;2023-03-31T09:31:13;99368.69;;;15.43;100.00
36092;BME280;22147;52.388;13.390;2023-03-31T09:33:51;99363.53;;;15.52;98.25
36092;BME280;22147;52.388;13.390;2023-03-31T09:36:26;99366.78;;;15.68;98.42
36092;BME280;22147;52.388;13.390;2023-03-31T09:38:57;99365.84;;;15.32;98.04
36092;BME280;22147;52.388;13.390;2023-03-31T09:41:27;99349.91;;;14.63;100.00
36092;BME280;22147;52.388;13.390;2023-03-31T09:43:59;99352.91;;;15.02;100.00
36092;BME280;22147;52.388;13.390;2023-03-31T09:46:35;99337.38;;;15.09;100.00
36092;BME280;22147;52.388;13.390;2023-03-31T09:49:16;99332.16;;;15.00;100.00
36092;BME280;22147;52.388;13.390;2023-03-31T09:52:03;99332.94;;;14.97;100.00
36092;BME280;22147;52.388;13.390;2023-03-31T09:54:50;99325.44;;;15.19;100.00
36092;BME280;22147;52.388;13.390;2023-03-31T09:57:38;99322.72;;;14.60;100.00
36092;BME280;22147;52.388;13.390;2023-03-31T10:00:19;99317.00;;;14.45;100.00
36092;BME280;22147;52.388;13.390;2023-03-31T10:02:54;99308.44;;;14.17;100.00
36092;BME280;22147;52.388;13.390;2023-03-31T10:05:35;99319.13;;;14.08;100.00
36092;BME280;22147;52.388;13.390;2023-03-31T10:14:09;99294.09;;;14.74;100.00
36092;BME280;22147;52.388;13.390;2023-03-31T10:16:52;99290.69;;;15.23;100.00
36092;BME280;22147;52.388;13.390;2023-03-31T10:19:29;99283.16;;;15.31;100.00
36092;BME280;22147;52.388;13.390;2023-03-31T10:22:16;99288.47;;;15.86;100.00
36092;BME280;22147;52.388;13.390;2023-03-31T10:25:18;99274.81;;;15.67;98.19
36092;BME280;22147;52.388;13.390;2023-03-31T10:27:55;99276.88;;;15.74;99.86
36092;BME280;22147;52.388;13.390;2023-03-31T10:30:31;99271.81;;;14.88;100.00
36092;BME280;22147;52.388;13.390;2023-03-31T10:33:12;99268.69;;;14.38;100.00
36092;BME280;22147;52.388;13.390;2023-03-31T10:35:58;99272.97;;;14.21;100.00
36092;BME280;22147;52.388;13.390;2023-03-31T10:38:43;99264.97;;;14.19;100.00
36092;BME280;22147;52.388;13.390;2023-03-31T10:41:24;99270.78;;;13.93;100.00
36092;BME280;22147;52.388;13.390;2023-03-31T10:44:00;99278.22;;;13.81;100.00
36092;BME280;22147;52.388;13.390;2023-03-31T10:46:49;99285.81;;;13.10;100.00
36092;BME280;22147;52.388;13.390;2023-03-31T10:51:55;99260.44;;;12.54;100.00
36092;BME280;22147;52.388;13.390;2023-03-31T10:54:27;99262.75;;;12.22;100.00
36092;BME280;22147;52.388;13.390;2023-03-31T10:57:01;99248.63;;;12.34;100.00
36092;BME280;22147;52.388;13.390;2023-03-31T11:00:13;99248.72;;;12.72;100.00
36092;BME280;22147;52.388;13.390;2023-03-31T11:03:09;99241.47;;;12.97;100.00
36092;BME280;22147;52.388;13.390;2023-03-31T11:12:54;99231.25;;;13.87;100.00
36092;BME280;22147;52.388;13.390;2023-03-31T11:25:38;99209.59;;;13.70;100.00
36092;BME280;22147;52.388;13.390;2023-03-31T11:31:52;99190.03;;;13.66;100.00
36092;BME280;22147;52.388;13.390;2023-03-31T11:41:14;99172.09;;;13.67;100.00
36092;BME280;22147;52.388;13.390;2023-03-31T11:44:02;99165.88;;;13.88;100.00
36092;BME280;22147;52.388;13.390;2023-03-31T11:46:52;99169.16;;;14.04;100.00
36092;BME280;22147;52.388;13.390;2023-03-31T11:49:44;99158.72;;;13.91;100.00
36092;BME280;22147;52.388;13.390;2023-03-31T11:52:28;99158.81;;;14.05;100.00
36092;BME280;22147;52.388;13.390;2023-03-31T11:55:18;99154.34;;;13.93;100.00
36092;BME280;22147;52.388;13.390;2023-03-31T11:58:16;99146.31;;;13.81;100.00
36092;BME280;22147;52.388;13.390;2023-03-31T12:01:16;99143.06;;;13.27;100.00
36092;BME280;22147;52.388;13.390;2023-03-31T12:06:42;99135.72;;;13.08;100.00
36092;BME280;22147;52.388;13.390;2023-03-31T12:09:49;99126.84;;;13.36;100.00
36092;BME280;22147;52.388;13.390;2023-03-31T12:12:53;99128.91;;;13.50;100.00
36092;BME280;22147;52.388;13.390;2023-03-31T12:15:45;99128.19;;;13.57;100.00
36092;BME280;22147;52.388;13.390;2023-03-31T12:18:31;99129.78;;;13.13;100.00
36092;BME280;22147;52.388;13.390;2023-03-31T12:21:09;99132.69;;;12.87;100.00
36092;BME280;22147;52.388;13.390;2023-03-31T12:23:44;99127.75;;;12.69;100.00
36092;BME280;22147;52.388;13.390;2023-03-31T12:29:30;99120.38;;;11.63;100.00
36092;BME280;22147;52.388;13.390;2023-03-31T12:32:35;99123.63;;;11.19;100.00
36092;BME280;22147;52.388;13.390;2023-03-31T12:35:22;99115.28;;;11.19;100.00
36092;BME280;22147;52.388;13.390;2023-03-31T12:43:58;99108.75;;;10.85;100.00
36092;BME280;22147;52.388;13.390;2023-03-31T12:53:48;99096.84;;;10.84;100.00
36092;BME280;22147;52.388;13.390;2023-03-31T12:56:23;99095.72;;;10.89;100.00
36092;BME280;22147;52.388;13.390;2023-03-31T13:00:08;99090.34;;;10.99;100.00
36092;BME280;22147;52.388;13.390;2023-03-31T13:02:42;99093.94;;;11.00;100.00
36092;BME280;22147;52.388;13.390;2023-03-31T13:08:09;99083.69;;;11.04;100.00
36092;BME280;22147;52.388;13.390;2023-03-31T13:10:57;99080.53;;;11.06;100.00
36092;BME280;22147;52.388;13.390;2023-03-31T13:13:28;99082.38;;;10.75;100.00
36092;BME280;22147;52.388;13.390;2023-03-31T13:16:01;99081.63;;;10.16;100.00
36092;BME280;22147;52.388;13.390;2023-03-31T13:18:33;99085.47;;;10.11;100.00
36092;BME280;22147;52.388;13.390;2023-03-31T13:21:05;99087.59;;;9.98;100.00
36092;BME280;22147;52.388;13.390;2023-03-31T13:23:45;99091.09;;;9.95;100.00
36092;BME280;22147;52.388;13.390;2023-03-31T13:29:41;99090.66;;;9.74;100.00
36092;BME280;22147;52.388;13.390;2023-03-31T13:32:26;99081.44;;;9.70;100.00
36092;BME280;22147;52.388;13.390;2023-03-31T13:35:28;99079.16;;;9.75;100.00
36092;BME280;22147;52.388;13.390;2023-03-31T13:50:04;99075.34;;;9.80;100.00
36092;BME280;22147;52.388;13.390;2023-03-31T13:53:12;99074.75;;;9.90;100.00
36092;BME280;22147;52.388;13.390;2023-03-31T13:57:33;99069.59;;;9.89;100.00
36092;BME280;22147;52.388;13.390;2023-03-31T14:09:23;99064.03;;;9.89;100.00
36092;BME280;22147;52.388;13.390;2023-03-31T14:15:19;99070.94;;;9.79;100.00
36092;BME280;22147;52.388;13.390;2023-03-31T14:17:50;99069.84;;;9.84;100.00
36092;BME280;22147;52.388;13.390;2023-03-31T14:35:42;99063.19;;;9.33;100.00
36092;BME280;22147;52.388;13.390;2023-03-31T14:38:22;99057.47;;;9.42;100.00
36092;BME280;22147;52.388;13.390;2023-03-31T14:40:54;99054.81;;;9.30;100.00
36092;BME280;22147;52.388;13.390;2023-03-31T14:43:48;99061.59;;;9.32;100.00
36092;BME280;22147;52.388;13.390;2023-03-31T14:46:21;99049.41;;;9.37;100.00
36092;BME280;22147;52.388;13.390;2023-03-31T14:48:52;99052.28;;;9.41;100.00
36092;BME280;22147;52.388;13.390;2023-03-31T14:51:29;99044.41;;;9.43;100.00
36092;BME280;22147;52.388;13.390;2023-03-31T14:54:01;99046.44;;;9.46;100.00
36092;BME280;22147;52.388;13.390;2023-03-31T14:56:37;99051.63;;;9.47;100.00
36092;BME280;22147;52.388;13.390;2023-03-31T14:59:09;99044.06;;;9.44;100.00
36092;BME280;22147;52.388;13.390;2023-03-31T15:01:48;99040.09;;;9.45;100.00
36092;BME280;22147;52.388;13.390;2023-03-31T15:04:24;99030.25;;;9.48;100.00
36092;BME280;22147;52.388;13.390;2023-03-31T15:07:12;99034.28;;;9.50;100.00
36092;BME280;22147;52.388;13.390;2023-03-31T15:09:49;99027.56;;;9.51;100.00
36092;BME280;22147;52.388;13.390;2023-03-31T15:12:22;99034.78;;;9.56;100.00
36092;BME280;22147;52.388;13.390;2023-03-31T15:15:02;99034.53;;;9.61;100.00
36092;BME280;22147;52.388;13.390;2023-03-31T15:17:41;99043.34;;;9.67;100.00
36092;BME280;22147;52.388;13.390;2023-03-31T15:20:44;99046.66;;;9.72;100.00
36092;BME280;22147;52.388;13.390;2023-03-31T15:23:32;99039.75;;;9.82;100.00
36092;BME280;22147;52.388;13.390;2023-03-31T15:26:10;99040.53;;;9.63;100.00
36092;BME280;22147;52.388;13.390;2023-03-31T15:29:12;99044.09;;;9.64;100.00
36092;BME280;22147;52.388;13.390;2023-03-31T15:31:49;99048.63;;;9.91;100.00
36092;BME280;22147;52.388;13.390;2023-03-31T15:34:31;99039.34;;;9.84;100.00
36092;BME280;22147;52.388;13.390;2023-03-31T15:37:06;99039.91;;;9.73;100.00
36092;BME280;22147;52.388;13.390;2023-03-31T15:39:38;99030.66;;;9.66;100.00
36092;BME280;22147;52.388;13.390;2023-03-31T15:42:16;99025.59;;;9.52;100.00
36092;BME280;22147;52.388;13.390;2023-03-31T15:48:29;99022.47;;;9.53;100.00
36092;BME280;22147;52.388;13.390;2023-03-31T15:53:46;99026.84;;;9.54;100.00
36092;BME280;22147;52.388;13.390;2023-03-31T15:57:03;99015.56;;;9.63;100.00
36092;BME280;22147;52.388;13.390;2023-03-31T15:59:51;99012.94;;;9.51;100.00
36092;BME280;22147;52.388;13.390;2023-03-31T16:02:46;99014.81;;;9.47;100.00
36092;BME280;22147;52.388;13.390;2023-03-31T16:05:54;99009.16;;;9.59;100.00
36092;BME280;22147;52.388;13.390;2023-03-31T16:08:56;99001.72;;;9.63;100.00
36092;BME280;22147;52.388;13.390;2023-03-31T16:11:48;99007.41;;;9.70;100.00
36092;BME280;22147;52.388;13.390;2023-03-31T16:14:47;99010.59;;;9.53;100.00
36092;BME280;22147;52.388;13.390;2023-03-31T16:20:19;99005.09;;;9.56;100.00
36092;BME280;22147;52.388;13.390;2023-03-31T16:22:55;99000.38;;;9.57;100.00
36092;BME280;22147;52.388;13.390;2023-03-31T16:25:31;99004.75;;;9.58;100.00
36092;BME280;22147;52.388;13.390;2023-03-31T16:28:20;99007.88;;;9.56;100.00